Terminal Aerodrome Forecast
Issued by NWS

Home | Current Version | Previous Version | Text Only | Print | Product List | Glossary On
Versions: 1 2 3 4 5 6 7 8 9 10 11 12 13 14 15 16 17 18 19
000
FTUS43 KJKL 250909 AAC
TAFSME
TAF AMD
KSME 250909Z 2509/2606 VRB03KT 2SM BR FEW005 SCT100
      TEMPO 2509/2512 1/4SM FG BKN002
     FM251400 VRB05KT P6SM FEW035 SCT100=

USA.gov is the U.S. government's official web portal to all federal, state and local government web resources and services.